createdAt,value
2022-08-17T00:00:42.900Z,23.02
2022-08-17T00:03:14.969Z,25.95
2022-08-17T00:05:47.430Z,23.38
2022-08-17T00:08:20.138Z,21.80
2022-08-17T00:10:50.643Z,24.65
2022-08-17T00:13:23.960Z,23.90
2022-08-17T00:15:58.506Z,24.38
2022-08-17T00:19:02.066Z,21.70
2022-08-17T00:21:23.791Z,19.85
2022-08-17T00:23:55.080Z,21.77
2022-08-17T00:26:44.341Z,23.67
2022-08-17T00:29:19.319Z,21.95
2022-08-17T00:31:50.222Z,28.55
2022-08-17T00:34:19.043Z,26.00
2022-08-17T00:36:47.338Z,25.65
2022-08-17T00:39:15.694Z,28.58
2022-08-17T00:41:44.163Z,23.90
2022-08-17T00:44:12.738Z,28.42
2022-08-17T00:46:44.329Z,23.83
2022-08-17T00:49:19.056Z,23.77
2022-08-17T00:51:51.714Z,26.92
2022-08-17T00:54:25.949Z,26.02
2022-08-17T00:56:59.430Z,32.53
2022-08-17T00:59:34.279Z,27.60
2022-08-17T01:02:04.395Z,27.98
2022-08-17T01:04:34.535Z,27.90
2022-08-17T01:07:05.282Z,26.60
2022-08-17T01:09:34.178Z,26.83
2022-08-17T01:12:02.559Z,28.58
2022-08-17T01:14:30.822Z,25.85
2022-08-17T01:17:00.237Z,25.58
2022-08-17T01:19:35.785Z,28.45
2022-08-17T01:22:18.551Z,23.35
2022-08-17T01:24:53.449Z,27.90
2022-08-17T01:27:22.566Z,29.52
2022-08-17T01:29:57.860Z,30.67
2022-08-17T01:32:28.535Z,28.27
2022-08-17T01:35:00.641Z,28.83
2022-08-17T01:37:35.438Z,30.27
2022-08-17T01:40:12.637Z,29.48
2022-08-17T01:42:47.709Z,29.50
2022-08-17T01:45:23.820Z,29.30
2022-08-17T01:47:53.043Z,32.13
2022-08-17T01:50:26.649Z,34.15
2022-08-17T01:53:01.226Z,34.95
2022-08-17T01:55:35.949Z,31.52
2022-08-17T01:58:08.832Z,31.50
2022-08-17T02:00:59.425Z,28.25
2022-08-17T02:03:27.071Z,32.08
2022-08-17T02:05:55.670Z,31.70
2022-08-17T02:08:39.318Z,35.08
2022-08-17T02:11:18.575Z,31.60
2022-08-17T02:13:57.974Z,33.58
2022-08-17T02:16:37.517Z,32.03
2022-08-17T02:19:10.830Z,34.15
2022-08-17T02:21:41.103Z,34.50
2022-08-17T02:24:58.778Z,34.38
2022-08-17T02:27:08.169Z,32.75
2022-08-17T02:29:37.180Z,33.97
2022-08-17T02:32:06.531Z,38.60
2022-08-17T02:34:34.770Z,38.10
2022-08-17T02:37:02.998Z,35.85
2022-08-17T02:39:32.674Z,36.28
2022-08-17T02:42:05.462Z,35.72
2022-08-17T02:44:38.806Z,30.85
2022-08-17T02:47:10.384Z,33.97
2022-08-17T02:49:39.373Z,36.95
2022-08-17T02:52:09.113Z,37.13
2022-08-17T02:54:41.274Z,36.55
2022-08-17T02:57:11.563Z,33.45
2022-08-17T02:59:42.386Z,38.15
2022-08-17T03:02:15.136Z,36.10
2022-08-17T03:04:43.348Z,37.00
2022-08-17T03:07:11.779Z,35.50
2022-08-17T03:09:41.324Z,35.70
2022-08-17T03:12:14.988Z,37.00
2022-08-17T03:14:44.851Z,33.50
2022-08-17T03:17:17.023Z,35.25
2022-08-17T03:19:45.922Z,36.70
2022-08-17T03:22:35.662Z,38.50
2022-08-17T03:25:04.655Z,34.22
2022-08-17T03:27:39.753Z,34.92
2022-08-17T03:30:13.341Z,37.55
2022-08-17T03:32:44.516Z,36.92
2022-08-17T03:35:17.843Z,37.75
2022-08-17T03:37:47.602Z,38.25
2022-08-17T03:40:55.859Z,37.45
2022-08-17T03:43:22.089Z,40.05
2022-08-17T03:46:27.022Z,37.17
2022-08-17T03:49:15.781Z,35.65
2022-08-17T03:52:01.802Z,37.88
2022-08-17T03:54:48.067Z,35.55
2022-08-17T03:57:19.109Z,35.72
2022-08-17T03:59:48.055Z,38.45
2022-08-17T04:02:22.370Z,38.83
2022-08-17T04:04:52.296Z,37.25
2022-08-17T04:07:23.087Z,37.70
2022-08-17T04:09:52.017Z,38.78
2022-08-17T04:12:24.138Z,38.92
2022-08-17T04:14:55.003Z,38.15
2022-08-17T04:17:27.040Z,37.83
2022-08-17T04:19:56.974Z,31.55
2022-08-17T04:22:32.090Z,33.60
2022-08-17T04:25:10.120Z,36.72
2022-08-17T04:27:39.987Z,35.25
2022-08-17T04:30:10.539Z,39.42
2022-08-17T04:33:05.146Z,38.80
2022-08-17T04:35:39.142Z,38.00
2022-08-17T04:38:10.420Z,38.72
2022-08-17T04:40:56.329Z,38.00
2022-08-17T04:43:28.147Z,36.33
2022-08-17T04:46:00.185Z,39.70
2022-08-17T04:48:36.052Z,36.92
2022-08-17T04:51:11.400Z,39.20
2022-08-17T04:53:41.254Z,38.20
2022-08-17T04:56:15.916Z,37.92
2022-08-17T04:58:50.157Z,39.10
2022-08-17T05:01:23.241Z,37.22
2022-08-17T05:03:53.457Z,37.67
2022-08-17T05:06:23.343Z,38.85
2022-08-17T05:08:51.808Z,44.72
2022-08-17T05:11:20.419Z,41.03
2022-08-17T05:13:51.083Z,35.90
2022-08-17T05:16:21.573Z,33.45
2022-08-17T05:18:50.796Z,33.83
2022-08-17T05:21:21.166Z,39.35
2022-08-17T05:23:54.934Z,35.30
2022-08-17T05:26:26.698Z,31.63
2022-08-17T05:29:02.814Z,35.35
2022-08-17T05:31:32.317Z,30.73
2022-08-17T05:34:01.557Z,33.40
2022-08-17T05:36:41.786Z,34.45
2022-08-17T05:39:16.208Z,33.15
2022-08-17T05:41:48.711Z,32.53
2022-08-17T05:44:18.718Z,30.48
2022-08-17T05:46:53.246Z,35.63
2022-08-17T05:49:28.760Z,29.42
2022-08-17T05:52:23.916Z,35.83
2022-08-17T05:55:13.015Z,36.28
2022-08-17T05:58:00.015Z,31.15
2022-08-17T06:00:41.850Z,28.70
2022-08-17T06:03:31.640Z,32.13
2022-08-17T06:06:27.257Z,32.00
2022-08-17T06:09:31.536Z,30.30
2022-08-17T06:12:22.042Z,34.05
2022-08-17T06:15:10.688Z,29.65
2022-08-17T06:17:42.395Z,27.40
2022-08-17T06:20:15.283Z,31.67
2022-08-17T06:22:50.244Z,32.33
2022-08-17T06:25:27.243Z,24.52
2022-08-17T06:28:03.706Z,28.83
2022-08-17T06:31:00.103Z,31.45
2022-08-17T06:33:37.028Z,29.42
2022-08-17T06:36:42.788Z,30.83
2022-08-17T06:39:36.022Z,27.80
2022-08-17T06:43:02.570Z,30.38
2022-08-17T06:45:18.701Z,29.85
2022-08-17T06:47:57.421Z,28.23
2022-08-17T06:50:36.821Z,33.10
2022-08-17T06:53:15.022Z,25.30
2022-08-17T06:55:51.130Z,26.98
2022-08-17T06:58:29.577Z,24.27
2022-08-17T07:01:05.092Z,24.85
2022-08-17T07:03:37.663Z,26.08
2022-08-17T07:06:15.415Z,26.80
2022-08-17T07:08:56.775Z,27.55
2022-08-17T07:11:33.014Z,27.17
2022-08-17T07:14:19.911Z,25.27
2022-08-17T07:16:52.532Z,25.50
2022-08-17T07:19:24.612Z,26.75
2022-08-17T07:22:08.709Z,26.40
2022-08-17T07:24:50.875Z,24.38
2022-08-17T07:27:23.506Z,27.33
2022-08-17T07:29:57.050Z,23.88
2022-08-17T07:32:32.428Z,24.05
2022-08-17T07:35:11.442Z,22.48
2022-08-17T07:37:45.641Z,27.13
2022-08-17T07:40:26.943Z,22.17
2022-08-17T07:43:21.887Z,21.40
2022-08-17T07:46:29.915Z,19.50
2022-08-17T07:49:19.936Z,23.92
2022-08-17T07:52:47.613Z,19.77
2022-08-17T07:54:56.026Z,23.73
2022-08-17T07:57:34.293Z,19.98
2022-08-17T08:00:23.920Z,21.33
2022-08-17T08:03:16.526Z,16.60
2022-08-17T08:05:57.309Z,18.90
2022-08-17T08:08:38.451Z,18.02
2022-08-17T08:11:13.076Z,19.65
2022-08-17T08:13:45.663Z,18.70
2022-08-17T08:16:25.278Z,16.83
2022-08-17T08:18:58.139Z,19.17
2022-08-17T08:21:43.881Z,18.35
2022-08-17T08:24:46.263Z,16.50
2022-08-17T08:27:30.613Z,17.63
2022-08-17T08:30:09.306Z,14.50
2022-08-17T08:32:57.664Z,14.70
2022-08-17T08:35:33.727Z,15.70
2022-08-17T08:38:16.290Z,13.63
2022-08-17T08:41:16.192Z,10.90
2022-08-17T08:44:01.685Z,11.07
2022-08-17T08:46:41.180Z,12.48
2022-08-17T08:50:05.870Z,14.13
2022-08-17T08:53:04.096Z,10.45
2022-08-17T08:55:52.063Z,10.30
2022-08-17T08:58:32.147Z,12.60
2022-08-17T09:01:23.777Z,12.07
2022-08-17T09:04:23.684Z,13.25
2022-08-17T09:07:11.624Z,10.27
2022-08-17T09:09:59.357Z,10.25
2022-08-17T09:12:43.078Z,12.43
2022-08-17T09:15:18.975Z,10.65
2022-08-17T09:18:30.462Z,9.27
2022-08-17T09:21:02.184Z,9.75
2022-08-17T09:23:36.839Z,9.30
2022-08-17T09:26:15.535Z,9.38
2022-08-17T09:28:51.490Z,12.02
2022-08-17T09:31:31.288Z,10.52
2022-08-17T09:34:10.776Z,17.58
2022-08-17T09:36:50.846Z,12.63
2022-08-17T09:39:29.099Z,8.70
2022-08-17T09:42:07.750Z,11.13
2022-08-17T09:44:43.674Z,9.80
2022-08-17T09:47:23.399Z,8.27
2022-08-17T09:50:00.369Z,8.95
2022-08-17T09:52:31.482Z,10.05
2022-08-17T09:55:01.811Z,13.68
2022-08-17T09:57:50.113Z,9.90
2022-08-17T10:00:26.426Z,11.00
2022-08-17T10:03:28.228Z,8.75
2022-08-17T10:06:07.771Z,10.23
2022-08-17T10:08:51.860Z,11.45
2022-08-17T10:11:48.325Z,8.93
2022-08-17T10:14:38.013Z,12.98
2022-08-17T10:17:29.527Z,15.45
2022-08-17T10:20:10.314Z,9.23
2022-08-17T10:23:05.055Z,11.63
2022-08-17T10:26:09.741Z,10.00
2022-08-17T10:28:47.731Z,10.93
2022-08-17T10:31:34.862Z,11.68
2022-08-17T10:34:44.373Z,9.23
2022-08-17T10:37:47.713Z,13.32
2022-08-17T10:40:32.536Z,10.20
2022-08-17T10:43:17.151Z,9.98
2022-08-17T10:46:09.477Z,10.40
2022-08-17T10:49:33.033Z,12.02
2022-08-17T10:52:04.662Z,14.80
2022-08-17T10:54:46.692Z,8.90
2022-08-17T10:57:44.916Z,8.73
2022-08-17T11:01:04.603Z,11.68
2022-08-17T11:03:33.148Z,9.57
2022-08-17T11:06:15.007Z,9.02
2022-08-17T11:09:28.809Z,9.57
2022-08-17T11:12:25.218Z,9.65
2022-08-17T11:15:13.617Z,12.02
2022-08-17T11:18:03.807Z,12.02
2022-08-17T11:21:21.272Z,10.93
2022-08-17T11:24:19.207Z,10.57
2022-08-17T11:27:05.840Z,9.40
2022-08-17T11:29:53.082Z,9.95
2022-08-17T11:32:46.080Z,10.13
2022-08-17T11:35:39.840Z,9.15
2022-08-17T11:38:25.751Z,8.52
2022-08-17T11:41:19.438Z,10.43
2022-08-17T11:44:16.003Z,8.75
2022-08-17T11:47:27.727Z,11.30
2022-08-17T11:50:49.741Z,10.15
2022-08-17T11:54:21.626Z,8.23
2022-08-17T11:56:49.672Z,10.10
2022-08-17T12:00:05.678Z,8.30
2022-08-17T12:02:47.439Z,8.38
2022-08-17T12:05:34.287Z,10.13
2022-08-17T12:08:20.185Z,8.73
2022-08-17T12:11:09.073Z,8.95
2022-08-17T12:13:47.657Z,9.88
2022-08-17T12:16:18.202Z,9.95
2022-08-17T12:18:58.458Z,9.60
2022-08-17T12:21:44.979Z,9.63
2022-08-17T12:24:31.305Z,9.20
2022-08-17T12:27:02.684Z,14.43
2022-08-17T12:29:38.410Z,9.43
2022-08-17T12:32:16.528Z,12.45
2022-08-17T12:34:49.160Z,11.65
2022-08-17T12:37:23.010Z,9.60
2022-08-17T12:39:57.765Z,10.27
2022-08-17T12:42:31.131Z,11.45
2022-08-17T12:45:00.090Z,9.02
2022-08-17T12:47:30.361Z,9.10
2022-08-17T12:50:29.703Z,8.13
2022-08-17T12:53:02.331Z,9.07
2022-08-17T12:55:38.838Z,8.77
2022-08-17T12:58:14.655Z,8.93
2022-08-17T13:00:51.699Z,8.10
2022-08-17T13:03:24.074Z,8.30
2022-08-17T13:06:01.405Z,9.65
2022-08-17T13:08:35.493Z,11.00
2022-08-17T13:11:09.281Z,9.27
2022-08-17T13:13:40.415Z,7.53
2022-08-17T13:16:18.855Z,8.57
2022-08-17T13:18:50.298Z,9.07
2022-08-17T13:21:28.064Z,9.07
2022-08-17T13:24:01.417Z,11.80
2022-08-17T13:26:35.191Z,10.93
2022-08-17T13:29:08.605Z,9.48
2022-08-17T13:31:51.939Z,9.57
2022-08-17T13:34:41.137Z,8.82
2022-08-17T13:37:32.682Z,9.77
2022-08-17T13:40:29.035Z,8.75
2022-08-17T13:42:58.609Z,10.68
2022-08-17T13:45:51.376Z,9.40
2022-08-17T13:48:28.662Z,9.60
2022-08-17T13:51:27.471Z,9.02
2022-08-17T13:54:21.249Z,10.38
2022-08-17T13:57:03.557Z,12.90
2022-08-17T13:59:54.546Z,8.88
2022-08-17T14:02:28.628Z,9.80
2022-08-17T14:05:00.459Z,13.15
2022-08-17T14:07:34.921Z,14.77
2022-08-17T14:10:13.296Z,9.13
2022-08-17T14:12:44.298Z,11.00
2022-08-17T14:15:15.492Z,10.80
2022-08-17T14:17:43.814Z,9.05
2022-08-17T14:20:14.368Z,8.63
2022-08-17T14:22:48.204Z,12.40
2022-08-17T14:25:21.800Z,13.00
2022-08-17T14:27:53.570Z,8.93
2022-08-17T14:30:28.870Z,9.27
2022-08-17T14:33:01.995Z,13.45
2022-08-17T14:35:30.935Z,9.20
2022-08-17T14:37:59.207Z,10.93
2022-08-17T14:40:29.291Z,8.43
2022-08-17T14:42:58.820Z,12.23
2022-08-17T14:45:32.792Z,9.07
2022-08-17T14:48:07.506Z,11.10
2022-08-17T14:50:38.810Z,9.57
2022-08-17T14:53:12.098Z,11.90
2022-08-17T14:55:41.800Z,8.90
2022-08-17T14:58:10.324Z,9.45
2022-08-17T15:00:41.263Z,11.80
2022-08-17T15:03:11.455Z,11.32
2022-08-17T15:05:41.082Z,12.20
2022-08-17T15:08:09.397Z,12.27
2022-08-17T15:10:37.748Z,8.43
2022-08-17T15:13:17.196Z,9.90
2022-08-17T15:15:45.486Z,8.88
2022-08-17T15:18:13.757Z,9.25
2022-08-17T15:20:44.325Z,8.95
2022-08-17T15:23:15.559Z,11.13
2022-08-17T15:25:45.251Z,8.57
2022-08-17T15:28:15.466Z,9.52
2022-08-17T15:30:44.969Z,8.95
2022-08-17T15:33:19.598Z,9.77
2022-08-17T15:35:52.107Z,12.68
2022-08-17T15:38:21.986Z,11.07
2022-08-17T15:40:52.379Z,10.48
2022-08-17T15:43:27.995Z,12.48
2022-08-17T15:46:01.642Z,11.85
2022-08-17T15:48:41.945Z,10.73
2022-08-17T15:51:14.923Z,13.70
2022-08-17T15:53:46.080Z,15.32
2022-08-17T15:56:15.427Z,11.35
2022-08-17T15:58:47.957Z,12.57
2022-08-17T16:03:01.249Z,14.30
2022-08-17T16:04:14.925Z,11.80
2022-08-17T16:06:58.171Z,11.52
2022-08-17T16:09:26.580Z,14.98
2022-08-17T16:11:56.359Z,13.48
2022-08-17T16:14:35.065Z,17.33
2022-08-17T16:17:04.473Z,12.20
2022-08-17T16:19:34.253Z,11.63
2022-08-17T16:22:03.822Z,12.07
2022-08-17T16:24:32.690Z,15.85
2022-08-17T16:27:01.387Z,11.50
2022-08-17T16:29:31.212Z,11.07
2022-08-17T16:31:59.786Z,14.63
2022-08-17T16:34:28.080Z,11.75
2022-08-17T16:36:56.916Z,12.15
2022-08-17T16:39:30.765Z,10.57
2022-08-17T16:42:00.341Z,10.45
2022-08-17T16:44:32.054Z,10.05
2022-08-17T16:47:01.728Z,14.25
2022-08-17T16:49:36.902Z,13.25
2022-08-17T16:52:11.275Z,13.05
2022-08-17T16:54:43.228Z,11.43
2022-08-17T16:57:11.587Z,12.50
2022-08-17T16:59:44.898Z,10.20
2022-08-17T17:02:16.886Z,11.60
2022-08-17T17:04:54.190Z,13.23
2022-08-17T17:07:50.966Z,10.85
2022-08-17T17:10:25.112Z,9.85
2022-08-17T17:13:03.585Z,13.05
2022-08-17T17:15:53.513Z,10.45
2022-08-17T17:18:32.556Z,14.85
2022-08-17T17:21:02.140Z,12.65
2022-08-17T17:23:51.023Z,10.15
2022-08-17T17:26:49.916Z,10.07
2022-08-17T17:29:47.339Z,9.82
2022-08-17T17:32:29.121Z,12.50
2022-08-17T17:35:18.802Z,8.75
2022-08-17T17:37:48.589Z,9.95
2022-08-17T17:40:23.571Z,11.70
2022-08-17T17:42:56.050Z,11.30
2022-08-17T17:45:32.302Z,11.70
2022-08-17T17:48:02.005Z,12.68
2022-08-17T17:50:38.269Z,9.10
2022-08-17T17:53:13.983Z,11.55
2022-08-17T17:55:56.903Z,9.80
2022-08-17T17:58:39.683Z,9.07
2022-08-17T18:01:28.680Z,12.27
2022-08-17T18:04:23.535Z,11.68
2022-08-17T18:07:12.163Z,11.32
2022-08-17T18:10:02.206Z,11.43
2022-08-17T18:12:44.185Z,10.60
2022-08-17T18:15:31.401Z,9.07
2022-08-17T18:18:37.672Z,10.77
2022-08-17T18:21:16.747Z,10.10
2022-08-17T18:23:55.117Z,10.80
2022-08-17T18:26:46.559Z,9.82
2022-08-17T18:29:35.847Z,11.38
2022-08-17T18:32:34.462Z,10.55
2022-08-17T18:35:30.160Z,10.05
2022-08-17T18:38:21.780Z,14.50
2022-08-17T18:41:03.087Z,12.13
2022-08-17T18:43:44.063Z,10.43
2022-08-17T18:46:29.688Z,9.88
2022-08-17T18:49:02.351Z,5.32
2022-08-17T18:51:41.362Z,5.88
2022-08-17T18:54:21.644Z,6.68
2022-08-17T18:56:56.320Z,7.57
2022-08-17T18:59:35.229Z,8.27
2022-08-17T19:02:39.068Z,7.72
2022-08-17T19:05:29.011Z,10.05
2022-08-17T19:08:22.685Z,9.48
2022-08-17T19:10:56.565Z,10.00
2022-08-17T19:13:34.697Z,10.00
2022-08-17T19:16:14.800Z,10.80
2022-08-17T19:18:52.940Z,11.52
2022-08-17T19:21:28.039Z,11.68
2022-08-17T19:24:05.904Z,10.88
2022-08-17T19:26:54.010Z,10.18
2022-08-17T19:29:34.315Z,10.07
2022-08-17T19:32:03.491Z,10.02
2022-08-17T19:34:36.369Z,12.48
2022-08-17T19:37:15.572Z,12.65
2022-08-17T19:39:55.964Z,13.00
2022-08-17T19:42:41.233Z,11.27
2022-08-17T19:45:24.139Z,10.73
2022-08-17T19:48:04.940Z,12.23
2022-08-17T19:50:44.671Z,10.35
2022-08-17T19:53:54.111Z,10.85
2022-08-17T19:56:31.082Z,12.45
2022-08-17T19:59:12.556Z,11.60
2022-08-17T20:01:49.942Z,12.23
2022-08-17T20:04:34.841Z,10.23
2022-08-17T20:07:09.281Z,11.50
2022-08-17T20:09:40.911Z,10.52
2022-08-17T20:12:17.305Z,10.00
2022-08-17T20:14:55.850Z,10.43
2022-08-17T20:17:31.732Z,10.00
2022-08-17T20:20:27.163Z,9.88
2022-08-17T20:23:11.259Z,10.25
2022-08-17T20:25:48.086Z,10.70
2022-08-17T20:28:24.747Z,11.05
2022-08-17T20:30:55.094Z,10.57
2022-08-17T20:33:27.970Z,12.02
2022-08-17T20:36:18.381Z,12.95
2022-08-17T20:38:51.964Z,11.23
2022-08-17T20:41:22.779Z,10.85
2022-08-17T20:44:04.747Z,11.48
2022-08-17T20:47:02.262Z,10.35
2022-08-17T20:49:53.978Z,9.88
2022-08-17T20:52:52.942Z,9.30
2022-08-17T20:55:53.160Z,8.55
2022-08-17T20:58:57.056Z,9.10
2022-08-17T21:01:40.074Z,9.20
2022-08-17T21:05:00.184Z,8.73
2022-08-17T21:07:45.803Z,9.07
2022-08-17T21:10:19.376Z,12.25
2022-08-17T21:12:56.863Z,11.02
2022-08-17T21:15:37.446Z,9.07
2022-08-17T21:18:17.977Z,9.23
2022-08-17T21:21:17.909Z,10.18
2022-08-17T21:24:19.338Z,9.52
2022-08-17T21:27:00.636Z,10.27
2022-08-17T21:29:34.116Z,9.48
2022-08-17T21:32:24.663Z,9.15
2022-08-17T21:35:25.177Z,10.48
2022-08-17T21:38:03.407Z,10.10
2022-08-17T21:40:34.715Z,9.43
2022-08-17T21:43:23.991Z,10.00
2022-08-17T21:46:05.516Z,9.88
2022-08-17T21:48:44.222Z,9.82
2022-08-17T21:51:18.226Z,9.13
2022-08-17T21:53:52.081Z,9.70
2022-08-17T21:56:27.270Z,9.20
2022-08-17T21:59:00.643Z,7.93
2022-08-17T22:01:34.415Z,9.10
2022-08-17T22:04:18.769Z,8.45
2022-08-17T22:06:56.457Z,9.55
2022-08-17T22:09:31.552Z,9.20
2022-08-17T22:12:10.788Z,8.63
2022-08-17T22:14:53.095Z,8.20
2022-08-17T22:17:25.900Z,8.00
2022-08-17T22:19:59.814Z,7.78
2022-08-17T22:22:35.401Z,8.70
2022-08-17T22:25:08.475Z,7.63
2022-08-17T22:27:56.468Z,8.38
2022-08-17T22:30:32.633Z,7.35
2022-08-17T22:33:03.282Z,7.30
2022-08-17T22:35:42.560Z,7.68
2022-08-17T22:38:41.324Z,7.85
2022-08-17T22:41:51.307Z,8.25
2022-08-17T22:44:29.470Z,7.78
2022-08-17T22:47:11.304Z,6.70
2022-08-17T22:49:54.125Z,7.68
2022-08-17T22:52:35.677Z,7.47
2022-08-17T22:55:32.283Z,7.45
2022-08-17T22:58:20.899Z,7.43
2022-08-17T23:00:51.022Z,7.45
2022-08-17T23:03:22.498Z,7.10
2022-08-17T23:06:07.912Z,7.35
2022-08-17T23:08:43.995Z,7.60
2022-08-17T23:11:12.494Z,9.45
2022-08-17T23:13:42.177Z,6.68
2022-08-17T23:16:10.617Z,8.05
2022-08-17T23:18:38.822Z,8.73
2022-08-17T23:21:07.699Z,6.70
2022-08-17T23:23:37.050Z,7.25
2022-08-17T23:26:11.207Z,7.00
2022-08-17T23:28:41.032Z,7.13
2022-08-17T23:31:09.748Z,6.85
2022-08-17T23:33:41.201Z,7.88
2022-08-17T23:36:15.272Z,6.70
2022-08-17T23:38:44.503Z,6.50
2022-08-17T23:41:17.971Z,5.57
2022-08-17T23:43:53.096Z,6.43
2022-08-17T23:46:22.384Z,8.32
2022-08-17T23:48:53.467Z,6.03
2022-08-17T23:51:28.413Z,5.57
2022-08-17T23:54:07.923Z,5.20
2022-08-17T23:56:41.957Z,6.30
2022-08-17T23:59:12.104Z,5.65
